Time;durP1;ratioP1;P1;durP2;ratioP2;P2;SDS_P1;SDS_P2;PMS_P1;PMS_P2;Temp;Humidity;BMP_temperature;BMP_pressure;BME280_temperature;BME280_humidity;BME280_pressure;Samples;Min_cycle;Max_cycle;Signal;HPM_P1;HPM_P2
2021/10/21 00:01:38;;;;;;;;;0.00;0.00;;;;;19.77;53.06;99366.06;4999275;28;45342;-59
2021/10/21 00:04:04;;;;;;;;;1.00;0.00;;;;;19.78;53.25;99389.13;4999012;28;45378;-59
2021/10/21 00:06:29;;;;;;;;;3.67;0.67;;;;;19.77;53.24;99376.75;4998502;28;46200;-60
2021/10/21 00:08:55;;;;;;;;;1.33;0.00;;;;;19.78;53.25;99389.13;4998955;28;45325;-61
2021/10/21 00:11:20;;;;;;;;;0.00;0.00;;;;;19.77;52.85;99381.19;4999095;28;45335;-59
2021/10/21 00:13:45;;;;;;;;;0.33;0.00;;;;;19.77;52.87;99359.88;4999284;28;45400;-60
2021/10/21 00:16:11;;;;;;;;;1.33;0.00;;;;;19.77;52.62;99360.75;4998689;28;46105;-62
2021/10/21 00:18:37;;;;;;;;;3.00;0.00;;;;;19.76;52.36;99375.00;4998768;28;45448;-59
2021/10/21 00:21:02;;;;;;;;;2.33;0.00;;;;;19.77;52.67;99357.19;4998918;28;45320;-59
2021/10/21 00:23:27;;;;;;;;;3.00;1.00;;;;;19.77;52.48;99360.75;4998878;28;45238;-61
2021/10/21 00:25:53;;;;;;;;;0.67;0.67;;;;;19.77;52.35;99375.88;4998401;28;46407;-61
2021/10/21 00:28:18;;;;;;;;;2.33;0.00;;;;;19.76;52.22;99369.66;4998679;28;45302;-60
2021/10/21 00:30:43;;;;;;;;;3.00;0.00;;;;;19.76;52.04;99412.31;4998937;28;45551;-60
2021/10/21 00:33:09;;;;;;;;;3.67;0.00;;;;;19.75;51.95;99388.41;4998767;28;45405;-59
2021/10/21 00:35:34;;;;;;;;;1.33;0.00;;;;;19.74;51.98;99384.84;4998071;28;46275;-58
2021/10/21 00:38:00;;;;;;;;;4.00;0.00;;;;;19.74;52.03;99421.31;4998381;28;45254;-59
2021/10/21 00:40:25;;;;;;;;;0.00;0.00;;;;;19.75;52.20;99415.94;4998533;28;45385;-60
2021/10/21 00:42:50;;;;;;;;;2.00;1.00;;;;;19.75;51.85;99409.72;4998651;28;45747;-59
2021/10/21 00:45:16;;;;;;;;;1.00;0.00;;;;;19.75;51.70;99399.06;4998393;28;46283;-61
2021/10/21 00:47:42;;;;;;;;;1.67;0.00;;;;;19.74;51.83;99395.53;4980765;28;45457;-59
2021/10/21 00:50:08;;;;;;;;;0.00;0.00;;;;;19.74;51.70;99408.84;4998527;28;45471;-58
2021/10/21 00:52:33;;;;;;;;;6.00;0.00;;;;;19.74;51.53;99406.19;4998399;28;45360;-59
2021/10/21 00:54:59;;;;;;;;;1.67;0.00;;;;;19.75;51.73;99415.94;4998010;28;46132;-59
2021/10/21 00:57:25;;;;;;;;;1.67;0.67;;;;;19.75;51.69;99437.25;4997991;28;45179;-59
2021/10/21 00:59:51;;;;;;;;;0.00;0.00;;;;;19.74;51.62;99427.50;4998416;28;45171;-58
2021/10/21 01:02:17;;;;;;;;;0.00;0.00;;;;;19.73;51.46;99423.13;4998372;28;45199;-58
2021/10/21 01:04:42;;;;;;;;;0.00;0.00;;;;;19.72;51.78;99416.03;4997919;28;47126;-63
2021/10/21 01:07:09;;;;;;;;;1.67;0.33;;;;;19.72;51.30;99442.69;4997961;28;45372;-60
2021/10/21 01:09:37;;;;;;;;;0.00;0.00;;;;;19.73;51.24;99431.13;4997941;28;45424;-63
2021/10/21 01:12:04;;;;;;;;;1.00;0.00;;;;;19.73;51.44;99449.78;4998203;28;45353;-59
2021/10/21 01:14:30;;;;;;;;;0.00;0.00;;;;;19.73;51.08;99465.78;4997565;28;47076;-59
2021/10/21 01:16:55;;;;;;;;;0.00;0.00;;;;;19.73;51.10;99468.44;4997896;28;45415;-60
2021/10/21 01:19:23;;;;;;;;;1.67;0.00;;;;;19.73;51.06;99465.78;4998019;28;45718;-61
2021/10/21 01:21:51;;;;;;;;;0.00;0.00;;;;;19.74;50.80;99466.63;4997995;28;45633;-61
2021/10/21 01:24:18;;;;;;;;;1.00;0.00;;;;;19.74;50.67;99495.94;4997965;28;48202;-62
2021/10/21 01:26:45;;;;;;;;;0.00;0.00;;;;;19.72;50.62;99466.69;4997619;28;45489;-61
2021/10/21 01:29:10;;;;;;;;;0.00;0.00;;;;;19.72;50.69;99485.38;4997814;28;45385;-59
2021/10/21 01:31:39;;;;;;;;;3.00;0.00;;;;;19.72;50.75;99517.34;4997409;28;45486;-59
2021/10/21 01:34:10;;;;;;;;;1.33;0.00;;;;;19.72;50.74;99530.69;4997808;28;47092;-58
2021/10/21 01:36:36;;;;;;;;;3.00;0.00;;;;;19.72;50.67;99530.69;4997406;28;45394;-60
2021/10/21 01:39:04;;;;;;;;;1.00;0.00;;;;;19.72;50.85;99524.47;4997451;28;45514;-61
2021/10/21 01:41:29;;;;;;;;;1.00;0.00;;;;;19.71;50.87;99542.28;4997773;28;45534;-59
2021/10/21 01:43:54;;;;;;;;;0.00;0.00;;;;;19.71;50.76;99547.63;4996490;28;45431;-59
2021/10/21 01:46:21;;;;;;;;;0.00;0.00;;;;;19.71;50.58;99539.63;4997474;28;45436;-61
2021/10/21 01:48:47;;;;;;;;;0.00;0.00;;;;;19.71;50.67;99579.63;4997443;28;45451;-60
2021/10/21 01:51:14;;;;;;;;;0.00;0.00;;;;;19.71;50.54;99566.28;4997812;28;45409;-60
2021/10/21 01:53:40;;;;;;;;;0.00;0.00;;;;;19.72;50.38;99585.78;4997084;28;46422;-59
2021/10/21 01:56:05;;;;;;;;;0.00;0.00;;;;;19.71;50.70;99584.06;4997157;28;45317;-59
2021/10/21 01:58:30;;;;;;;;;0.00;0.00;;;;;19.71;50.46;99597.41;4997640;28;45263;-60
2021/10/21 02:00:56;;;;;;;;;1.00;0.00;;;;;19.71;50.55;99624.06;4997371;28;45379;-59
2021/10/21 02:03:21;;;;;;;;;0.00;0.00;;;;;19.71;50.35;99611.59;4997166;28;47179;-59
2021/10/21 02:05:47;;;;;;;;;0.00;0.00;;;;;19.71;50.33;99622.28;4997246;28;45308;-59
2021/10/21 02:08:12;;;;;;;;;0.00;0.00;;;;;19.71;50.41;99645.41;4997238;28;45450;-60
2021/10/21 02:10:37;;;;;;;;;1.00;0.00;;;;;19.71;50.35;99643.59;4997372;28;45479;-63
2021/10/21 02:13:03;;;;;;;;;1.00;0.00;;;;;19.70;50.32;99628.53;4997084;28;45226;-59
2021/10/21 02:15:29;;;;;;;;;0.00;0.00;;;;;19.71;50.16;99672.94;4996383;28;45503;-58
2021/10/21 02:17:54;;;;;;;;;0.00;0.00;;;;;19.71;50.00;99682.72;4997174;28;45453;-60
2021/10/21 02:20:20;;;;;;;;;0.33;0.00;;;;;19.70;50.25;99665.84;4997377;28;45496;-59
2021/10/21 02:22:49;;;;;;;;;2.00;0.00;;;;;19.70;49.92;99671.19;4996939;28;46403;-59
2021/10/21 02:25:15;;;;;;;;;0.00;0.00;;;;;19.69;50.06;99685.44;4996949;28;45265;-63
2021/10/21 02:27:41;;;;;;;;;0.00;0.00;;;;;19.70;49.81;99697.84;4996928;28;45261;-63
2021/10/21 02:30:08;;;;;;;;;0.00;0.00;;;;;19.70;49.60;99716.50;4997113;28;45445;-60
2021/10/21 02:32:33;;;;;;;;;1.67;0.00;;;;;19.71;49.56;99728.91;4996619;28;47028;-60
2021/10/21 02:34:58;;;;;;;;;2.33;0.00;;;;;19.69;49.67;99773.44;4996804;28;45222;-61
2021/10/21 02:37:24;;;;;;;;;0.67;0.00;;;;;19.69;49.63;99753.91;4996886;28;45214;-64
2021/10/21 02:39:49;;;;;;;;;0.00;0.00;;;;;19.69;49.54;99770.75;4996852;28;45385;-60
2021/10/21 02:42:15;;;;;;;;;0.00;0.00;;;;;19.69;49.56;99767.22;4995900;28;45572;-61
2021/10/21 02:44:40;;;;;;;;;3.00;0.00;;;;;19.68;49.65;99814.34;4996488;28;45376;-62
2021/10/21 02:47:05;;;;;;;;;0.00;0.00;;;;;19.67;49.85;99781.47;4996715;28;45548;-59
2021/10/21 02:49:31;;;;;;;;;0.00;0.00;;;;;19.67;49.58;99815.28;4997017;28;45233;-62
2021/10/21 02:51:57;;;;;;;;;0.00;0.00;;;;;19.66;49.54;99811.72;4996530;28;46348;-60
2021/10/21 02:54:22;;;;;;;;;0.00;0.00;;;;;19.68;49.54;99833.00;4996537;28;45309;-60
2021/10/21 02:56:48;;;;;;;;;1.33;0.00;;;;;19.67;49.28;99842.78;4996504;28;45376;-63
2021/10/21 02:59:14;;;;;;;;;0.00;0.00;;;;;19.69;49.07;99868.53;4997406;28;45328;-61
2021/10/21 03:01:39;;;;;;;;;1.00;0.00;;;;;19.66;49.17;99891.72;4999974;28;47098;-59
2021/10/21 03:04:05;;;;;;;;;0.00;0.00;;;;;19.68;49.23;99910.31;4999830;28;45417;-64
2021/10/21 03:06:30;;;;;;;;;0.00;0.00;;;;;19.67;49.16;99908.59;5000089;28;45146;-62
2021/10/21 03:08:55;;;;;;;;;0.00;0.00;;;;;19.67;49.13;99953.91;5000174;28;45243;-60
2021/10/21 03:11:21;;;;;;;;;0.00;0.00;;;;;19.67;49.16;99943.25;4999542;28;46124;-65
2021/10/21 03:13:46;;;;;;;;;0.00;0.00;;;;;19.67;48.87;99953.91;4999927;28;45195;-64
2021/10/21 03:16:11;;;;;;;;;3.00;0.00;;;;;19.66;48.86;100003.69;4999831;28;45642;-62
2021/10/21 03:18:37;;;;;;;;;0.00;0.00;;;;;19.66;48.95;100019.69;4999980;28;45453;-61
2021/10/21 03:21:02;;;;;;;;;0.00;0.00;;;;;19.67;48.51;100017.91;4999610;28;45962;-62
2021/10/21 03:23:27;;;;;;;;;0.33;0.00;;;;;19.66;48.76;100078.34;4999593;28;45409;-60
2021/10/21 03:25:54;;;;;;;;;0.67;0.00;;;;;19.67;48.93;100047.22;4999720;28;45451;-60
2021/10/21 03:28:20;;;;;;;;;0.00;0.00;;;;;19.67;49.06;100097.88;4999823;28;45456;-58
2021/10/21 03:30:46;;;;;;;;;0.00;0.00;;;;;19.66;49.23;100141.44;4999328;28;47373;-65
2021/10/21 03:33:12;;;;;;;;;1.00;0.00;;;;;19.66;48.74;100169.00;4981689;28;45501;-64
2021/10/21 03:35:39;;;;;;;;;0.00;0.00;;;;;19.65;48.62;100147.72;4999575;28;45381;-65
2021/10/21 03:38:04;;;;;;;;;1.00;0.00;;;;;19.65;48.61;100161.91;4999816;28;45295;-63
2021/10/21 03:40:30;;;;;;;;;0.00;0.00;;;;;19.65;48.71;100172.56;4999123;28;47162;-61
2021/10/21 03:42:55;;;;;;;;;1.00;0.00;;;;;19.64;48.62;100192.16;4999473;28;45294;-61
2021/10/21 03:45:21;;;;;;;;;0.00;0.00;;;;;19.65;48.63;100199.22;4999282;28;45229;-61
2021/10/21 03:47:47;;;;;;;;;0.00;0.00;;;;;19.65;48.18;100227.72;4999744;28;45231;-65
2021/10/21 03:50:12;;;;;;;;;1.00;0.00;;;;;19.65;48.35;100241.88;4999264;28;46185;-62
2021/10/21 03:52:38;;;;;;;;;0.00;0.00;;;;;19.65;48.25;100252.56;4981746;28;45654;-59
2021/10/21 03:55:04;;;;;;;;;0.67;0.00;;;;;19.65;48.23;100267.69;4999367;28;45637;-61
2021/10/21 03:57:29;;;;;;;;;0.00;0.00;;;;;19.64;48.30;100272.16;4999229;28;45444;-59
2021/10/21 03:59:55;;;;;;;;;0.00;0.00;;;;;19.64;48.11;100298.81;4999193;28;46294;-63
2021/10/21 04:02:20;;;;;;;;;0.00;0.00;;;;;19.64;47.90;100303.25;4998825;28;45309;-62
2021/10/21 04:04:46;;;;;;;;;0.00;0.00;;;;;19.64;47.99;100325.47;4999316;28;45352;-65
2021/10/21 04:07:11;;;;;;;;;0.00;0.00;;;;;19.64;47.67;100335.25;4999196;28;45396;-59
2021/10/21 04:09:37;;;;;;;;;0.00;0.00;;;;;19.64;47.88;100329.94;4998905;28;46303;-65
2021/10/21 04:12:03;;;;;;;;;0.00;0.00;;;;;19.63;47.64;100347.69;4997402;28;46446;-64
2021/10/21 04:14:28;;;;;;;;;0.00;0.00;;;;;19.64;47.61;100359.25;4999041;28;45258;-63
2021/10/21 04:16:54;;;;;;;;;0.00;0.00;;;;;19.63;47.70;100374.38;4999043;28;45364;-62
2021/10/21 04:19:19;;;;;;;;;0.67;0.00;;;;;19.62;47.52;100361.97;4998656;28;46997;-63
2021/10/21 04:21:44;;;;;;;;;0.00;0.00;;;;;19.64;47.50;100375.25;4998063;28;45218;-64
2021/10/21 04:24:10;;;;;;;;;0.00;0.00;;;;;19.63;47.60;100373.50;4998955;28;45512;-59
2021/10/21 04:26:35;;;;;;;;;1.33;0.00;;;;;19.64;47.64;100383.25;4998853;28;45242;-59
2021/10/21 04:29:00;;;;;;;;;0.00;0.00;;;;;19.63;47.98;100402.84;4998502;28;45998;-59
2021/10/21 04:31:26;;;;;;;;;1.00;0.00;;;;;19.63;47.61;100392.19;4998085;28;45376;-60
2021/10/21 04:33:51;;;;;;;;;0.00;0.00;;;;;19.63;47.79;100397.50;4998832;28;45669;-60
2021/10/21 04:36:17;;;;;;;;;0.00;0.00;;;;;19.61;47.43;100408.19;4999116;28;45202;-64
2021/10/21 04:38:42;;;;;;;;;0.00;0.00;;;;;19.61;47.39;100428.63;4980957;28;47160;-63
2021/10/21 04:41:07;;;;;;;;;0.00;0.00;;;;;19.61;47.60;100418.84;4998694;28;45260;-63
2021/10/21 04:43:33;;;;;;;;;1.00;0.00;;;;;19.62;47.36;100425.06;4998330;28;45779;-64
2021/10/21 04:45:58;;;;;;;;;0.00;0.00;;;;;19.61;47.41;100428.63;4998499;28;45249;-60
2021/10/21 04:48:24;;;;;;;;;0.00;0.00;;;;;19.60;47.57;100429.56;4998449;28;47234;-60
2021/10/21 04:50:49;;;;;;;;;0.00;0.00;;;;;19.60;47.38;100443.78;4998335;28;45321;-63
2021/10/21 04:53:15;;;;;;;;;0.00;0.00;;;;;19.60;47.49;100459.78;4998647;28;45322;-63
2021/10/21 04:55:40;;;;;;;;;0.00;0.00;;;;;19.60;47.17;100456.22;4998356;28;45593;-60
2021/10/21 04:58:06;;;;;;;;;0.00;0.00;;;;;19.60;47.29;100462.44;4998137;28;45460;-60
2021/10/21 05:00:33;;;;;;;;;0.00;0.00;;;;;19.61;47.17;100465.97;4998080;28;45673;-61
2021/10/21 05:03:06;;;;;;;;;1.67;0.00;;;;;19.61;47.43;100481.97;4998120;28;45203;-61
2021/10/21 05:05:31;;;;;;;;;1.33;0.00;;;;;19.60;47.39;100494.44;4998351;28;45500;-62
2021/10/21 05:07:57;;;;;;;;;0.00;0.00;;;;;19.59;47.24;100491.78;4997646;28;46059;-64
2021/10/21 05:10:22;;;;;;;;;0.67;0.00;;;;;19.60;47.46;100520.22;4997323;28;45368;-60
2021/10/21 05:12:47;;;;;;;;;0.00;0.00;;;;;19.59;47.13;100514.00;4998082;28;45373;-60
2021/10/21 05:15:13;;;;;;;;;0.00;0.00;;;;;19.58;47.58;100536.25;4995400;28;45534;-62
2021/10/21 05:17:38;;;;;;;;;1.67;0.00;;;;;19.58;48.21;100535.38;4997648;28;46140;-62
2021/10/21 05:20:04;;;;;;;;;0.00;0.00;;;;;19.59;48.88;100539.78;4997636;28;45448;-62
2021/10/21 05:22:30;;;;;;;;;2.00;0.00;;;;;19.59;49.06;100550.44;4996791;28;45332;-62
2021/10/21 05:24:55;;;;;;;;;0.00;0.00;;;;;19.59;49.53;100547.78;4997714;28;45371;-60
2021/10/21 05:27:20;;;;;;;;;0.67;0.00;;;;;19.59;49.45;100551.31;4997589;28;47026;-63
2021/10/21 05:29:46;;;;;;;;;0.67;0.67;;;;;19.60;49.60;100554.88;4996650;28;45432;-63
2021/10/21 05:32:12;;;;;;;;;0.00;0.00;;;;;19.61;49.91;100561.94;4997444;28;45297;-63
2021/10/21 05:34:38;;;;;;;;;0.00;0.00;;;;;19.61;50.12;100564.63;4997862;28;45428;-63
2021/10/21 05:37:06;;;;;;;;;0.00;0.00;;;;;19.62;50.35;100574.38;4997470;28;47318;-63
2021/10/21 05:39:33;;;;;;;;;1.33;0.00;;;;;19.61;50.49;100577.94;4997507;28;45424;-63
2021/10/21 05:41:59;;;;;;;;;0.67;0.00;;;;;19.61;50.33;100575.28;4997563;28;45326;-63
2021/10/21 05:44:25;;;;;;;;;2.00;0.00;;;;;19.61;50.35;100586.84;4997188;28;45475;-63
2021/10/21 05:46:52;;;;;;;;;0.00;0.00;;;;;19.59;50.34;100588.66;4997225;28;46274;-63
2021/10/21 05:49:17;;;;;;;;;0.00;0.00;;;;;19.60;50.48;100589.53;4997796;28;45850;-63
2021/10/21 05:51:43;;;;;;;;;1.00;1.00;;;;;19.60;50.63;100578.88;4997759;28;45198;-63
2021/10/21 05:54:09;;;;;;;;;0.33;0.00;;;;;19.59;50.58;100582.44;4997471;28;45210;-63
2021/10/21 05:56:35;;;;;;;;;0.00;0.00;;;;;19.59;50.61;100580.66;4997019;28;46090;-63
2021/10/21 05:59:00;;;;;;;;;0.33;0.00;;;;;19.59;50.90;100577.09;4996891;28;45316;-63
2021/10/21 06:01:25;;;;;;;;;0.00;0.00;;;;;19.59;50.79;100590.44;4997353;28;45500;-63
2021/10/21 06:03:51;;;;;;;;;0.00;0.00;;;;;19.59;50.70;100590.44;4997417;28;45549;-63
2021/10/21 06:06:16;;;;;;;;;0.00;0.00;;;;;19.59;51.03;100602.00;4997041;28;45976;-63
2021/10/21 06:08:44;;;;;;;;;1.00;0.00;;;;;19.58;50.73;100600.25;4997167;28;45337;-63
2021/10/21 06:11:10;;;;;;;;;0.67;0.00;;;;;19.59;50.71;100603.78;4997059;28;45456;-63
2021/10/21 06:13:35;;;;;;;;;0.33;0.00;;;;;19.59;50.97;100606.44;4997203;28;45155;-63
2021/10/21 06:16:02;;;;;;;;;0.00;0.00;;;;;19.59;51.31;100603.78;4996516;28;46265;-63
2021/10/21 06:18:28;;;;;;;;;0.00;0.00;;;;;19.58;51.09;100620.69;4997065;28;45341;-63
2021/10/21 06:20:54;;;;;;;;;0.00;0.00;;;;;19.59;50.95;100627.75;4996095;28;45375;-63
2021/10/21 06:23:20;;;;;;;;;0.00;0.00;;;;;19.57;51.25;100627.81;4996382;28;45373;-63
2021/10/21 06:25:46;;;;;;;;;0.00;0.00;;;;;19.57;50.66;100625.16;4996668;28;47268;-63
2021/10/21 06:28:11;;;;;;;;;0.67;0.00;;;;;19.56;51.40;100642.91;4996815;28;45357;-64
2021/10/21 06:30:37;;;;;;;;;0.67;0.67;;;;;19.58;51.38;100636.69;4996665;28;45347;-64
2021/10/21 06:33:03;;;;;;;;;0.00;0.00;;;;;19.58;51.80;100644.69;4996554;28;45483;-64
2021/10/21 06:35:29;;;;;;;;;0.00;0.00;;;;;19.58;51.82;100639.34;4996708;28;47128;-64
2021/10/21 06:37:55;;;;;;;;;0.33;0.00;;;;;19.58;51.96;100640.25;4996835;28;45250;-64
2021/10/21 06:40:21;;;;;;;;;0.33;0.00;;;;;19.58;52.05;100652.69;4979293;28;45421;-63
2021/10/21 06:42:46;;;;;;;;;0.00;0.00;;;;;19.59;52.11;100654.44;4997096;28;45335;-63
2021/10/21 06:45:12;;;;;;;;;1.00;0.00;;;;;19.59;52.15;100657.09;4996518;28;46187;-63
2021/10/21 06:47:43;;;;;;;;;0.00;0.00;;;;;19.59;51.90;100665.97;4996576;28;45483;-64
2021/10/21 06:50:11;;;;;;;;;0.33;0.00;;;;;19.59;52.06;100663.31;4996757;28;45306;-63
2021/10/21 06:52:41;;;;;;;;;0.00;0.00;;;;;19.58;51.76;100666.91;4996834;28;45278;-63
2021/10/21 06:55:07;;;;;;;;;2.00;0.00;;;;;19.58;51.89;100671.34;4996479;28;45364;-63
2021/10/21 06:57:50;;;;;;;;;0.00;0.00;;;;;19.57;51.72;100675.81;4996473;28;45419;-64
2021/10/21 07:00:16;;;;;;;;;0.00;0.00;;;;;19.58;51.63;100692.69;4996561;28;45379;-63
2021/10/21 07:02:42;;;;;;;;;1.33;0.00;;;;;19.56;51.85;100690.91;4996836;28;45481;-63
2021/10/21 07:05:09;;;;;;;;;1.00;0.00;;;;;19.57;51.65;100686.47;4996386;28;47267;-63
2021/10/21 07:07:34;;;;;;;;;0.00;0.00;;;;;19.56;51.76;100696.25;4996318;28;45366;-63
2021/10/21 07:10:00;;;;;;;;;0.00;0.00;;;;;19.55;51.82;100694.50;4996622;28;45214;-64
2021/10/21 07:12:26;;;;;;;;;0.33;0.33;;;;;19.55;51.78;100707.84;4996635;28;45410;-63
2021/10/21 07:14:51;;;;;;;;;0.00;0.00;;;;;19.56;51.66;100706.06;4996328;28;47105;-64
2021/10/21 07:17:17;;;;;;;;;0.00;0.00;;;;;19.55;51.77;100706.94;4996361;28;45452;-64
2021/10/21 07:19:45;;;;;;;;;0.33;0.00;;;;;19.55;51.70;100710.50;4996603;28;45451;-63
2021/10/21 07:22:11;;;;;;;;;1.33;0.00;;;;;19.54;51.72;100719.38;4996605;28;45505;-63
2021/10/21 07:24:36;;;;;;;;;0.00;0.00;;;;;19.54;51.70;100722.06;4995854;28;47061;-63
2021/10/21 07:27:02;;;;;;;;;1.67;0.00;;;;;19.55;51.42;100728.28;4996228;28;45264;-63
2021/10/21 07:29:27;;;;;;;;;0.00;0.00;;;;;19.54;51.77;100723.88;4996122;28;45321;-64
2021/10/21 07:31:53;;;;;;;;;0.00;0.00;;;;;19.55;51.87;100725.63;4995754;28;45412;-63
2021/10/21 07:34:18;;;;;;;;;1.00;0.00;;;;;19.54;52.11;100731.88;4995891;28;47083;-64
2021/10/21 07:36:43;;;;;;;;;0.00;0.00;;;;;19.53;51.53;100741.66;4995954;28;45392;-64
2021/10/21 07:39:09;;;;;;;;;1.00;0.00;;;;;19.53;51.54;100749.66;4996127;28;45250;-64
2021/10/21 07:41:35;;;;;;;;;1.33;0.00;;;;;19.53;51.53;100749.66;4996209;28;45502;-64
2021/10/21 07:44:01;;;;;;;;;0.00;0.00;;;;;19.52;51.50;100750.53;4995432;28;46942;-66
2021/10/21 07:46:26;;;;;;;;;0.67;0.00;;;;;19.52;51.62;100763.88;4997572;28;45250;-63
2021/10/21 07:48:51;;;;;;;;;0.67;0.67;;;;;19.52;51.34;100763.88;4999184;28;45332;-63
2021/10/21 07:51:17;;;;;;;;;1.00;0.00;;;;;19.51;51.46;100771.91;4981721;28;45417;-64
2021/10/21 07:53:43;;;;;;;;;0.33;0.00;;;;;19.51;51.18;100786.13;4981293;28;47343;-64
2021/10/21 07:56:08;;;;;;;;;2.67;0.67;;;;;19.51;51.51;100786.13;4998831;28;45199;-64
2021/10/21 07:58:33;;;;;;;;;3.00;0.00;;;;;19.50;51.59;100784.34;4999141;28;45360;-64
2021/10/21 08:00:59;;;;;;;;;0.00;0.00;;;;;19.50;51.50;100779.00;4999304;28;45380;-64
2021/10/21 08:03:24;;;;;;;;;2.00;0.00;;;;;19.51;51.25;100793.22;4998868;28;46915;-63
2021/10/21 08:05:50;;;;;;;;;0.67;0.67;;;;;19.51;51.53;100794.13;4998590;28;45516;-64
2021/10/21 08:08:15;;;;;;;;;0.00;0.00;;;;;19.51;51.19;100798.56;4999067;28;45619;-64
2021/10/21 08:10:41;;;;;;;;;0.00;0.00;;;;;19.49;51.32;100798.59;4999265;28;45303;-64
2021/10/21 08:13:06;;;;;;;;;1.00;0.00;;;;;19.49;51.24;100803.94;4998935;28;46969;-64
2021/10/21 08:15:32;;;;;;;;;0.33;0.00;;;;;19.50;51.48;100810.16;4998626;28;45367;-63
2021/10/21 08:17:57;;;;;;;;;0.00;0.00;;;;;19.48;51.45;100810.16;4998737;28;45328;-64
2021/10/21 08:20:29;;;;;;;;;1.33;0.00;;;;;19.49;51.29;100816.38;4998997;28;45446;-64
2021/10/21 08:22:54;;;;;;;;;0.00;0.00;;;;;19.49;51.34;100811.94;4998527;28;46273;-64
2021/10/21 08:25:24;;;;;;;;;0.00;0.00;;;;;19.49;51.33;100813.72;4998334;28;45341;-64
2021/10/21 08:27:50;;;;;;;;;0.67;0.00;;;;;19.49;51.25;100827.94;4998611;28;45248;-64
2021/10/21 08:30:18;;;;;;;;;1.00;1.00;;;;;19.47;51.35;100816.41;4998662;28;45425;-64
2021/10/21 08:32:44;;;;;;;;;0.00;0.00;;;;;19.48;51.33;100822.63;4997972;28;46063;-64
2021/10/21 08:35:14;;;;;;;;;0.67;0.67;;;;;19.48;51.47;100828.81;4997924;28;45353;-64
2021/10/21 08:37:40;;;;;;;;;0.00;0.00;;;;;19.47;51.34;100819.06;4998406;28;45198;-63
2021/10/21 08:40:06;;;;;;;;;1.00;1.00;;;;;19.47;51.49;100815.53;4998659;28;45285;-64
2021/10/21 08:42:31;;;;;;;;;1.00;0.33;;;;;19.47;51.49;100805.75;4998443;28;46756;-64
2021/10/21 08:44:57;;;;;;;;;0.67;0.67;;;;;19.47;51.28;100808.41;4997809;28;45205;-64
2021/10/21 08:47:23;;;;;;;;;1.67;0.67;;;;;19.47;51.45;100807.53;4998512;28;45844;-64
2021/10/21 08:49:51;;;;;;;;;0.00;0.00;;;;;19.47;51.52;100807.53;4998376;28;45424;-63
2021/10/21 08:52:18;;;;;;;;;0.00;0.00;;;;;19.47;51.50;100810.19;4998087;28;46320;-65
2021/10/21 08:54:43;;;;;;;;;0.00;0.00;;;;;19.46;51.54;100811.13;4998059;28;45321;-64
2021/10/21 08:57:13;;;;;;;;;0.67;0.33;;;;;19.46;51.29;100811.97;4997864;28;45417;-64
2021/10/21 08:59:44;;;;;;;;;0.33;0.00;;;;;19.47;51.27;100826.19;4998311;28;45488;-64
2021/10/21 09:02:18;;;;;;;;;1.33;0.33;;;;;19.46;51.26;100819.97;4997671;28;47222;-64
2021/10/21 09:09:43;;;;;;;;;3.00;0.00;;;;;19.46;51.21;100813.78;4998187;28;45354;-63
2021/10/21 09:12:14;;;;;;;;;0.33;0.00;;;;;19.45;51.27;100799.56;4997579;28;46987;-64
2021/10/21 09:14:50;;;;;;;;;1.00;1.00;;;;;19.44;51.20;100811.13;4997472;28;45776;-64
2021/10/21 09:17:25;;;;;;;;;1.00;0.00;;;;;19.44;51.37;100814.69;4997498;28;45317;-63
2021/10/21 09:19:50;;;;;;;;;0.00;0.00;;;;;19.44;51.38;100817.34;4997937;28;45415;-64
2021/10/21 09:22:23;;;;;;;;;0.00;0.00;;;;;19.43;51.21;100812.94;4997606;28;46499;-64
2021/10/21 09:24:49;;;;;;;;;0.50;0.50;;;;;19.43;51.43;100804.94;4997553;28;45225;-64
2021/10/21 09:27:20;;;;;;;;;0.67;0.67;;;;;19.44;51.39;100816.44;4997533;28;45400;-64
2021/10/21 09:29:55;;;;;;;;;2.33;0.00;;;;;19.44;51.32;100816.44;4997745;28;45512;-63
2021/10/21 09:32:23;;;;;;;;;0.00;0.00;;;;;19.43;51.15;100828.03;4996924;28;47120;-64
2021/10/21 09:34:57;;;;;;;;;0.00;0.00;;;;;19.43;51.09;100818.25;4997469;28;45260;-64
2021/10/21 09:37:42;;;;;;;;;0.00;0.00;;;;;19.42;51.26;100826.28;4997620;28;45306;-64
2021/10/21 09:40:14;;;;;;;;;1.33;0.00;;;;;19.42;51.12;100821.81;4997609;28;45230;-64
2021/10/21 09:42:46;;;;;;;;;1.67;0.00;;;;;19.43;51.18;100822.72;4997235;28;47173;-63
2021/10/21 09:45:23;;;;;;;;;1.00;1.00;;;;;19.42;51.31;100815.59;4997091;28;45448;-64
2021/10/21 09:47:54;;;;;;;;;0.67;0.67;;;;;19.42;51.04;100823.59;4997655;28;45442;-64
2021/10/21 09:50:31;;;;;;;;;0.00;0.00;;;;;19.41;51.18;100822.75;4997551;28;45476;-64
2021/10/21 09:53:20;;;;;;;;;0.33;0.00;;;;;19.40;51.23;100823.63;4997146;28;46061;-64
2021/10/21 09:56:00;;;;;;;;;0.00;0.00;;;;;19.40;51.19;100828.09;4997226;28;45760;-64
2021/10/21 09:58:34;;;;;;;;;1.33;1.00;;;;;19.40;51.42;100815.63;4997068;28;45353;-64
2021/10/21 10:01:10;;;;;;;;;0.67;0.67;;;;;19.40;51.36;100828.09;4997155;28;45492;-63
2021/10/21 10:03:39;;;;;;;;;0.33;0.33;;;;;19.39;51.35;100827.22;4997086;28;47239;-64
2021/10/21 10:06:05;;;;;;;;;0.33;0.33;;;;;19.39;51.43;100837.88;4997057;28;45269;-63
2021/10/21 10:08:31;;;;;;;;;0.00;0.00;;;;;19.41;51.26;100840.53;4996445;28;45174;-64
2021/10/21 10:11:02;;;;;;;;;2.33;1.00;;;;;19.39;51.50;100843.22;4979741;28;45659;-63
2021/10/21 10:13:29;;;;;;;;;0.00;0.00;;;;;19.39;51.20;100831.66;4996779;28;46581;-64
2021/10/21 10:15:55;;;;;;;;;0.00;0.00;;;;;19.38;51.34;100838.78;4996895;28;45389;-63
2021/10/21 10:18:24;;;;;;;;;1.33;0.00;;;;;19.37;51.22;100826.38;4996973;28;45229;-64
2021/10/21 10:21:02;;;;;;;;;0.00;0.00;;;;;19.39;51.72;100847.66;4997348;28;45945;-64
2021/10/21 10:23:28;;;;;;;;;0.00;0.00;;;;;19.38;51.35;100833.44;4996649;28;46219;-64
2021/10/21 10:25:54;;;;;;;;;3.33;1.00;;;;;19.37;51.51;100825.50;4996702;28;45491;-64
2021/10/21 10:28:20;;;;;;;;;2.00;0.00;;;;;19.38;51.35;100840.56;4996716;28;45379;-64
2021/10/21 10:30:49;;;;;;;;;0.67;0.00;;;;;19.36;51.50;100829.94;4997209;28;45326;-64
2021/10/21 10:33:39;;;;;;;;;1.67;0.00;;;;;19.38;51.37;100816.56;4996427;28;47140;-64
2021/10/21 10:36:25;;;;;;;;;4.33;0.00;;;;;19.36;51.29;100818.38;4996840;28;45342;-64
2021/10/21 10:38:50;;;;;;;;;0.00;0.00;;;;;19.36;51.28;100818.38;4996755;28;45442;-64
2021/10/21 10:41:44;;;;;;;;;2.00;0.00;;;;;19.36;51.52;100811.28;4997332;28;45421;-64
2021/10/21 10:44:32;;;;;;;;;1.67;0.00;;;;;19.34;51.43;100829.06;4996453;28;46451;-64
2021/10/21 10:46:58;;;;;;;;;0.00;0.00;;;;;19.36;51.27;100837.03;4996542;28;45440;-64
2021/10/21 10:49:41;;;;;;;;;1.67;0.00;;;;;19.36;51.33;100842.38;4996817;28;45396;-64
2021/10/21 10:52:12;;;;;;;;;0.00;0.00;;;;;19.34;51.48;100826.41;4996919;28;45287;-64
2021/10/21 10:54:45;;;;;;;;;1.00;0.00;;;;;19.35;51.50;100837.97;4996429;28;47131;-64
2021/10/21 10:57:12;;;;;;;;;0.67;0.00;;;;;19.35;51.37;100840.63;4996430;28;45443;-64
2021/10/21 10:59:40;;;;;;;;;0.00;0.00;;;;;19.33;51.47;100835.34;4996602;28;45473;-64
2021/10/21 11:02:26;;;;;;;;;0.00;0.00;;;;;19.34;51.37;100839.75;4996585;28;45518;-64
2021/10/21 11:04:54;;;;;;;;;1.00;1.00;;;;;19.32;51.34;100831.78;4982375;28;47246;-64
2021/10/21 11:07:20;;;;;;;;;0.67;0.33;;;;;19.33;51.31;100832.66;4996259;28;45409;-64
2021/10/21 11:09:48;;;;;;;;;0.33;0.00;;;;;19.32;51.21;100837.13;4996634;28;45384;-63
2021/10/21 11:12:24;;;;;;;;;1.33;0.00;;;;;19.33;51.28;100828.19;4996541;28;45456;-63
2021/10/21 11:14:56;;;;;;;;;0.67;0.00;;;;;19.33;51.17;100832.66;4996065;28;46456;-64
2021/10/21 11:17:54;;;;;;;;;0.00;0.00;;;;;19.32;51.33;100826.44;4996169;28;45400;-64
2021/10/21 11:20:28;;;;;;;;;0.67;0.67;;;;;19.31;51.37;100814.00;4916860;28;45495;-64
2021/10/21 11:22:56;;;;;;;;;2.33;0.00;;;;;19.32;51.53;100814.91;4919750;28;45332;-64
2021/10/21 11:25:26;;;;;;;;;3.00;0.33;;;;;19.31;51.25;100822.00;4919693;28;45308;-64
2021/10/21 11:27:55;;;;;;;;;3.33;1.00;;;;;19.30;51.51;100825.59;4919470;28;45363;-64
2021/10/21 11:30:23;;;;;;;;;0.33;0.00;;;;;19.31;51.39;100811.34;4919738;28;45491;-64
2021/10/21 11:32:50;;;;;;;;;0.00;0.00;;;;;19.31;51.40;100813.16;4919593;28;45437;-64